createdAt,value
2022-10-18T00:00:21.573Z,86.58
2022-10-18T00:02:54.044Z,85.56
2022-10-18T00:05:42.744Z,86.13
2022-10-18T00:08:23.437Z,85.90
2022-10-18T00:11:00.212Z,86.29
2022-10-18T00:13:37.601Z,85.84
2022-10-18T00:16:14.354Z,86.10
2022-10-18T00:18:54.548Z,86.05
2022-10-18T00:21:34.901Z,86.55
2022-10-18T00:24:12.637Z,85.97
2022-10-18T00:26:47.566Z,86.05
2022-10-18T00:29:21.489Z,86.07
2022-10-18T00:31:55.710Z,85.56
2022-10-18T00:34:31.494Z,85.88
2022-10-18T00:37:12.644Z,85.84
2022-10-18T00:39:55.157Z,85.34
2022-10-18T00:42:31.232Z,85.27
2022-10-18T00:45:15.131Z,85.43
2022-10-18T00:47:47.120Z,85.31
2022-10-18T00:50:29.717Z,85.24
2022-10-18T00:53:11.452Z,85.14
2022-10-18T00:55:44.611Z,84.92
2022-10-18T00:58:20.326Z,85.30
2022-10-18T01:00:59.440Z,85.43
2022-10-18T01:03:51.362Z,85.32
2022-10-18T01:06:29.463Z,85.18
2022-10-18T01:09:46.702Z,85.02
2022-10-18T01:13:03.842Z,84.76
2022-10-18T01:16:06.707Z,84.33
2022-10-18T01:18:59.693Z,84.86
2022-10-18T01:21:46.345Z,85.07
2022-10-18T01:24:56.139Z,85.06
2022-10-18T01:27:54.715Z,85.15
2022-10-18T01:31:00.566Z,84.75
2022-10-18T01:33:39.730Z,84.76
2022-10-18T01:40:40.725Z,85.34
2022-10-18T01:43:30.986Z,84.45
2022-10-18T01:46:12.897Z,84.48
2022-10-18T01:48:44.734Z,84.96
2022-10-18T01:51:28.795Z,85.04
2022-10-18T01:54:01.271Z,84.92
2022-10-18T01:56:59.825Z,84.91
2022-10-18T01:59:33.536Z,84.92
2022-10-18T02:02:13.049Z,84.59
2022-10-18T02:05:03.543Z,84.78
2022-10-18T02:08:23.142Z,83.80
2022-10-18T02:11:12.254Z,84.40
2022-10-18T02:13:48.737Z,84.40
2022-10-18T02:16:37.810Z,84.70
2022-10-18T02:19:48.462Z,83.99
2022-10-18T02:22:34.230Z,84.53
2022-10-18T02:25:17.398Z,84.56
2022-10-18T02:31:17.226Z,84.29
2022-10-18T02:34:23.714Z,84.05
2022-10-18T02:37:00.250Z,84.14
2022-10-18T02:39:54.027Z,84.74
2022-10-18T02:42:48.563Z,83.81
2022-10-18T02:45:37.353Z,84.36
2022-10-18T02:48:27.969Z,83.98
2022-10-18T02:51:36.052Z,84.05
2022-10-18T02:54:11.396Z,84.01
2022-10-18T02:56:55.376Z,84.33
2022-10-18T02:59:35.229Z,83.88
2022-10-18T03:02:13.006Z,83.33
2022-10-18T03:04:45.586Z,83.43
2022-10-18T03:07:29.760Z,83.83
2022-10-18T03:10:35.193Z,83.96
2022-10-18T03:13:40.085Z,84.01
2022-10-18T03:16:12.919Z,83.85
2022-10-18T03:18:45.917Z,83.77
2022-10-18T03:21:16.234Z,83.90
2022-10-18T03:23:46.149Z,84.20
2022-10-18T03:26:19.968Z,83.53
2022-10-18T03:28:52.994Z,84.47
2022-10-18T03:31:20.981Z,84.62
2022-10-18T03:33:50.961Z,84.13
2022-10-18T03:36:23.813Z,84.73
2022-10-18T03:38:52.932Z,83.98
2022-10-18T03:41:22.817Z,84.64
2022-10-18T03:43:51.306Z,84.90
2022-10-18T03:46:30.168Z,84.57
2022-10-18T03:55:17.184Z,84.73
2022-10-18T03:58:24.631Z,85.24
2022-10-18T04:46:34.428Z,85.50
2022-10-18T05:17:20.847Z,85.35
2022-10-18T05:20:47.845Z,84.76
2022-10-18T05:36:35.319Z,84.88
2022-10-18T05:39:06.295Z,85.35
2022-10-18T05:41:35.037Z,84.78
2022-10-18T06:36:20.917Z,86.94
2022-10-18T06:43:20.492Z,87.83
2022-10-18T06:46:39.646Z,88.20
2022-10-18T06:49:19.127Z,89.98
2022-10-18T06:52:31.688Z,89.93
2022-10-18T06:55:49.730Z,90.42
2022-10-18T07:05:49.163Z,91.18
2022-10-18T07:08:43.324Z,95.39
2022-10-18T07:11:57.099Z,93.38
2022-10-18T07:14:29.859Z,92.38
2022-10-18T07:17:14.210Z,92.89
2022-10-18T07:19:53.522Z,93.00
2022-10-18T07:23:29.404Z,93.06
2022-10-18T07:26:35.246Z,93.63
2022-10-18T07:37:14.935Z,94.79
2022-10-18T07:41:09.070Z,95.75
2022-10-18T07:44:56.186Z,93.88
2022-10-18T08:09:06.057Z,95.10
2022-10-18T08:12:15.559Z,95.44
2022-10-18T08:15:28.700Z,95.35
2022-10-18T08:20:04.746Z,95.43
2022-10-18T08:26:41.766Z,96.50
2022-10-18T08:29:53.743Z,96.59
2022-10-18T08:33:24.222Z,97.01
2022-10-18T08:36:24.228Z,98.03
2022-10-18T09:00:48.848Z,100.00
2022-10-18T09:11:57.999Z,100.00
2022-10-18T09:26:40.351Z,100.00
2022-10-18T09:34:18.669Z,100.00
2022-10-18T10:51:29.366Z,100.00
2022-10-18T11:21:23.821Z,100.00
2022-10-18T12:57:38.090Z,100.00
2022-10-18T13:09:32.714Z,100.00
2022-10-18T13:16:18.046Z,100.00
2022-10-18T13:20:39.568Z,100.00
2022-10-18T14:18:53.103Z,100.00
2022-10-18T14:22:39.549Z,100.00
2022-10-18T14:25:34.356Z,100.00
2022-10-18T14:32:11.644Z,100.00
2022-10-18T14:35:55.698Z,99.77
2022-10-18T14:39:19.681Z,100.00
2022-10-18T14:43:23.674Z,99.76
2022-10-18T14:47:01.229Z,99.05
2022-10-18T14:50:24.922Z,98.54
2022-10-18T14:53:43.740Z,99.18
2022-10-18T14:56:45.493Z,98.30
2022-10-18T14:59:46.446Z,98.09
2022-10-18T15:03:45.258Z,97.41
2022-10-18T15:07:21.951Z,96.76
2022-10-18T15:10:43.249Z,97.22
2022-10-18T15:13:35.174Z,98.11
2022-10-18T15:17:01.397Z,96.92
2022-10-18T15:20:57.303Z,97.34
2022-10-18T15:24:14.281Z,97.14
2022-10-18T15:32:01.987Z,95.95
2022-10-18T15:35:33.042Z,95.73
2022-10-18T15:59:04.108Z,94.86
2022-10-18T16:02:34.704Z,93.66
2022-10-18T16:05:34.263Z,93.07
2022-10-18T16:08:39.946Z,92.98
2022-10-18T16:32:14.254Z,91.90
2022-10-18T16:39:26.329Z,88.12
2022-10-18T16:42:43.098Z,87.62
2022-10-18T16:45:35.328Z,89.07
2022-10-18T16:48:35.826Z,88.59
2022-10-18T16:52:08.881Z,87.65
2022-10-18T16:58:10.586Z,89.19
2022-10-18T17:01:32.857Z,86.44
2022-10-18T17:04:10.771Z,87.64
2022-10-18T17:10:17.429Z,86.14
2022-10-18T17:12:59.696Z,87.17
2022-10-18T17:16:22.246Z,87.59
2022-10-18T17:19:01.088Z,86.67
2022-10-18T17:21:35.062Z,86.70
2022-10-18T17:24:20.280Z,86.97
2022-10-18T17:26:56.554Z,86.78
2022-10-18T17:29:35.763Z,86.90
2022-10-18T17:32:06.360Z,86.67
2022-10-18T17:34:38.623Z,86.52
2022-10-18T17:37:26.921Z,87.04
2022-10-18T17:40:30.730Z,86.16
2022-10-18T17:42:59.425Z,86.83
2022-10-18T17:45:56.984Z,86.52
2022-10-18T17:48:32.017Z,87.05
2022-10-18T17:51:30.872Z,85.60
2022-10-18T17:54:06.926Z,86.84
2022-10-18T17:56:40.442Z,86.09
2022-10-18T17:59:12.777Z,86.25
2022-10-18T18:01:44.380Z,86.23
2022-10-18T18:04:32.057Z,86.82
2022-10-18T18:07:05.796Z,86.05
2022-10-18T18:09:36.737Z,86.22
2022-10-18T18:12:04.676Z,86.33
2022-10-18T18:14:34.642Z,86.87
2022-10-18T18:17:24.639Z,85.87
2022-10-18T18:20:08.574Z,86.06
2022-10-18T18:23:24.557Z,86.07
2022-10-18T18:26:22.958Z,86.18
2022-10-18T18:28:53.244Z,85.89
2022-10-18T18:31:30.742Z,85.96
2022-10-18T18:34:21.270Z,86.49
2022-10-18T18:37:02.694Z,86.68
2022-10-18T18:39:55.580Z,86.44
2022-10-18T18:42:40.347Z,86.66
2022-10-18T18:45:54.727Z,86.68
2022-10-18T18:49:06.152Z,86.49
2022-10-18T18:51:50.522Z,86.76
2022-10-18T18:54:25.436Z,86.69
2022-10-18T18:56:57.655Z,86.60
2022-10-18T18:59:33.421Z,86.41
2022-10-18T19:02:01.148Z,86.43
2022-10-18T19:07:55.843Z,86.39
2022-10-18T19:10:26.659Z,86.47
2022-10-18T19:12:58.641Z,86.23
2022-10-18T19:15:26.034Z,86.44
2022-10-18T19:17:53.677Z,86.74
2022-10-18T19:20:23.664Z,86.17
2022-10-18T19:22:51.617Z,85.91
2022-10-18T19:25:21.112Z,85.82
2022-10-18T19:27:51.072Z,85.22
2022-10-18T19:30:20.785Z,85.46
2022-10-18T19:32:48.145Z,85.59
2022-10-18T19:35:16.461Z,85.44
2022-10-18T19:37:43.761Z,85.65
2022-10-18T19:40:15.261Z,84.55
2022-10-18T19:42:43.490Z,84.92
2022-10-18T19:45:11.037Z,84.76
2022-10-18T19:47:39.679Z,84.34
2022-10-18T19:50:13.474Z,84.21
2022-10-18T19:52:41.051Z,84.57
2022-10-18T19:55:08.746Z,84.25
2022-10-18T19:57:43.391Z,84.69
2022-10-18T20:05:06.212Z,83.01
2022-10-18T20:07:38.168Z,84.43
2022-10-18T20:10:06.645Z,84.02
2022-10-18T20:12:39.473Z,84.17
2022-10-18T20:15:09.144Z,84.11
2022-10-18T20:17:36.354Z,83.76
2022-10-18T20:20:07.524Z,83.38
2022-10-18T20:22:37.950Z,83.39
2022-10-18T20:25:05.578Z,83.88
2022-10-18T20:27:33.341Z,83.67
2022-10-18T20:30:01.498Z,83.50
2022-10-18T20:32:29.774Z,83.41
2022-10-18T20:34:58.282Z,83.32
2022-10-18T20:37:25.608Z,82.15
2022-10-18T20:39:55.273Z,81.92
2022-10-18T20:42:25.072Z,82.52
2022-10-18T20:44:52.455Z,82.13
2022-10-18T20:47:19.829Z,81.72
2022-10-18T20:49:49.641Z,81.94
2022-10-18T20:52:17.059Z,81.51
2022-10-18T20:54:45.416Z,81.53
2022-10-18T20:57:12.747Z,80.97
2022-10-18T20:59:42.249Z,81.19
2022-10-18T21:02:13.032Z,80.82
2022-10-18T21:04:42.731Z,80.90
2022-10-18T21:07:10.155Z,81.39
2022-10-18T21:09:38.542Z,80.58
2022-10-18T21:12:05.903Z,81.32
2022-10-18T21:14:33.642Z,81.01
2022-10-18T21:17:01.892Z,81.36
2022-10-18T21:19:30.630Z,80.98
2022-10-18T21:21:58.758Z,81.42
2022-10-18T21:24:29.608Z,81.81
2022-10-18T21:26:57.271Z,81.53
2022-10-18T21:29:25.091Z,82.09
2022-10-18T21:31:58.653Z,82.27
2022-10-18T21:34:26.563Z,82.68
2022-10-18T21:36:55.580Z,82.37
2022-10-18T21:39:25.318Z,83.64
2022-10-18T21:41:53.073Z,82.47
2022-10-18T21:44:28.062Z,81.45
2022-10-18T21:46:55.719Z,81.57
2022-10-18T21:49:25.283Z,81.79
2022-10-18T21:51:52.892Z,82.56
2022-10-18T21:54:23.045Z,82.92
2022-10-18T21:56:53.080Z,83.18
2022-10-18T21:59:21.585Z,83.21
2022-10-18T22:01:49.094Z,83.29
2022-10-18T22:04:20.361Z,82.99
2022-10-18T22:06:50.111Z,83.17
2022-10-18T22:09:23.554Z,83.46
2022-10-18T22:11:55.229Z,83.83
2022-10-18T22:14:23.386Z,84.10
2022-10-18T22:16:51.285Z,83.67
2022-10-18T22:19:19.733Z,83.59
2022-10-18T22:21:47.190Z,83.88
2022-10-18T22:24:15.119Z,84.13
2022-10-18T22:26:43.617Z,84.25
2022-10-18T22:29:16.579Z,83.75
2022-10-18T22:31:50.970Z,84.10
2022-10-18T22:34:23.519Z,83.68
2022-10-18T22:36:51.657Z,83.79
2022-10-18T22:39:24.969Z,84.27
2022-10-18T22:41:56.539Z,84.46
2022-10-18T22:44:24.655Z,84.04
2022-10-18T22:46:52.065Z,84.80
2022-10-18T22:49:19.654Z,84.38
2022-10-18T22:51:49.943Z,84.41
2022-10-18T22:54:17.656Z,84.43
2022-10-18T22:56:45.172Z,84.88
2022-10-18T22:59:12.568Z,84.62
2022-10-18T23:01:43.010Z,84.33
2022-10-18T23:04:11.842Z,84.17
2022-10-18T23:06:40.300Z,84.57
2022-10-18T23:09:09.411Z,84.53
2022-10-18T23:11:40.236Z,84.56
2022-10-18T23:14:08.267Z,85.04
2022-10-18T23:16:35.929Z,84.99
2022-10-18T23:19:04.778Z,84.46
2022-10-18T23:21:34.065Z,84.91
2022-10-18T23:24:01.760Z,84.62
2022-10-18T23:26:32.264Z,84.19
2022-10-18T23:28:59.681Z,84.35
2022-10-18T23:31:30.737Z,84.50
2022-10-18T23:34:01.977Z,84.54
2022-10-18T23:36:34.275Z,84.45
2022-10-18T23:39:02.903Z,84.48
2022-10-18T23:42:00.066Z,84.73
2022-10-18T23:44:29.530Z,84.46
2022-10-18T23:46:56.944Z,85.07
2022-10-18T23:50:14.717Z,84.42
2022-10-18T23:52:41.929Z,84.77
2022-10-18T23:55:09.761Z,84.57
2022-10-18T23:57:37.053Z,84.15
